• Join FlightAware (Why Join?)
  • Login
  • US Flag 
11:42AM EDT


 

Airport Tracker/Info


-or-


 

Live Flight TrackerFlight Track Log ✈ N960DL ✈ 26-Apr-2013 ✈ KATL - KALB

Flight Track Log - Related Links

Times and Time Zones

All times are in EDT time to prevent confusion due to time zone crossing. See the N960DL flight status page for this flight to view local times or setup timezone preferences in your user account.

Time Position Orientation Groundspeed Altitude Reporting Facility
EDT Latitude Longitude Course Direction KTS MPH feet Rate Location/Type
08:26PM 33.6478 -84.3681 11° North 440 506 2,500  Level Atlanta Center
08:27PM 33.6667 -84.2667 77° East 268 308 5,200 2,700 Climbing Atlanta TRACON
08:28PM 33.7000 -84.1833 64° Northeast 287 330 8,200 2,400 Climbing Atlanta TRACON
08:29PM 33.9361 -84.2667 North  Level FlightAware Approximate
08:29PM 33.7667 -84.1833 360° North 295 339 10,000  Level Atlanta TRACON
08:30PM 34.0603 -84.2667 North  Level FlightAware Approximate
08:31PM 34.1845 -84.2667 North  Level FlightAware Approximate
08:31PM 33.9631 -84.2192 351° North 358 412 12,800  Level Atlanta Center
08:32PM 34.3083 -84.2607 11° North  Level FlightAware Approximate
08:32PM 34.0592 -84.2394 350° North 375 432 15,400  Level Atlanta Center
08:33PM 34.1844 -84.2622 351° North 402 463 17,900 1,920 Climbing Atlanta Center
08:34PM 34.3033 -84.2778 354° North 423 487 19,300 1,860 Climbing Atlanta Center
08:35PM 34.4264 -84.2478 11° North 433 498 21,700 1,920 Climbing Atlanta Center
08:36PM 34.5517 -84.2178 11° North 451 519 23,200 1,500 Climbing Atlanta Center
08:37PM 34.6769 -84.1878 11° North 457 526 24,700 1,620 Climbing Atlanta Center
08:38PM 34.8022 -84.1578 11° North 452 520 26,500 1,620 Climbing Atlanta Center
08:39PM 34.9294 -84.1275 11° North 452 520 28,000 1,200 Climbing Atlanta Center
08:40PM 35.0506 -84.0997 11° North 446 513 29,000 480 Climbing Atlanta Center
08:41PM 35.1717 -84.0719 11° North 446 513 29,000  Level Atlanta Center
08:42PM 35.2928 -84.0183 20° North 446 513 29,000  Level Atlanta Center
08:43PM 35.4053 -83.9369 31° Northeast 456 525 29,000 480 Level Atlanta Center
08:44PM 35.5200 -83.8575 29° Northeast 461 531 30,000 480 Climbing Atlanta Center
08:45PM 35.6283 -83.7781 31° Northeast 456 525 30,000  Level Atlanta Center
08:46PM 35.7428 -83.6983 29° Northeast 461 531 30,000  Level Atlanta Center
08:47PM 35.8531 -83.6161 31° Northeast 466 536 30,000  Level Atlanta Center
08:48PM 35.9656 -83.5383 29° Northeast 466 536 30,000 480 Level Atlanta Center
08:49PM 36.0756 -83.4581 31° Northeast 466 536 31,000 480 Climbing Atlanta Center
08:50PM 36.1858 -83.3775 31° Northeast 460 529 31,000  Level Atlanta Center
08:51PM 36.2981 -83.2967 30° Northeast 465 535 31,000  Level Atlanta Center
08:52PM 36.4081 -83.2158 31° Northeast 465 535 31,000 420 Level Atlanta Center
08:54PM 36.6436 -83.0436 30° Northeast 462 532 32,400 600 Climbing Indianapolis Center
08:55PM 36.7542 -82.9625 30° Northeast 461 531 33,000 240 Climbing Indianapolis Center
08:56PM 36.8639 -82.8811 31° Northeast 467 537 33,000  Level Indianapolis Center
08:57PM 36.9881 -82.7894 31° Northeast 470 541 33,000  Level Indianapolis Center
08:58PM 37.0975 -82.7111 30° Northeast 458 527 33,000  Level Indianapolis Center
08:59PM 37.2094 -82.6308 30° Northeast 461 531 33,000  Level Indianapolis Center
09:00PM 37.3206 -82.5508 30° Northeast 459 528 33,000  Level Indianapolis Center
09:02PM 37.4308 -82.4689 31° Northeast 460 529 33,000  Level Indianapolis Center
09:03PM 37.5411 -82.3856 31° Northeast 460 529 33,000  Level Indianapolis Center
09:04PM 37.6522 -82.3017 31° Northeast 463 533 33,000  Level Indianapolis Center
09:05PM 37.7814 -82.2053 31° Northeast 462 532 33,000  Level Indianapolis Center
09:06PM 37.8803 -82.1317 30° Northeast 460 529 33,000  Level Indianapolis Center
09:07PM 37.9903 -82.0481 31° Northeast 461 531 33,000  Level Indianapolis Center
09:08PM 38.0997 -81.9639 31° Northeast 460 529 33,000  Level Indianapolis Center
09:09PM 38.2094 -81.8794 31° Northeast 460 529 33,000  Level Indianapolis Center
09:10PM 38.3200 -81.7947 31° Northeast 462 532 33,000  Level Indianapolis Center
09:11PM 38.4339 -81.6531 44° Northeast 486 559 33,000  Level Indianapolis Center
09:12PM 38.5228 -81.5231 49° Northeast 491 565 33,000  Level Indianapolis Center
09:13PM 38.6108 -81.3961 48° Northeast 490 564 33,000  Level Indianapolis Center
09:14PM 38.6983 -81.2708 48° Northeast 482 555 33,000  Level Indianapolis Center
09:15PM 38.7869 -81.1428 48° Northeast 483 556 33,000  Level Indianapolis Center
09:16PM 38.8758 -81.0156 48° Northeast 481 554 33,000  Level Indianapolis Center
09:17PM 38.9828 -80.8606 48° Northeast 484 557 33,000  Level Indianapolis Center
09:18PM 39.0725 -80.7308 48° Northeast 483 556 33,000  Level Indianapolis Center
09:19PM 39.1650 -80.6033 47° Northeast 487 560 33,000  Level Indianapolis Center
09:20PM 39.2561 -80.4772 47° Northeast 483 556 33,000  Level Indianapolis Center
09:21PM 39.3461 -80.3497 48° Northeast 480 552 33,000  Level Indianapolis Center
09:21PM 39.4039 -80.2742 45° Northeast 484 557 33,000  Level Cleveland Center
09:22PM 39.4931 -80.1472 48° Northeast 479 551 33,000  Level Cleveland Center
09:23PM 39.5822 -80.0203 48° Northeast 473 544 33,000  Level Cleveland Center
09:24PM 39.6711 -79.8900 48° Northeast 473 544 33,000  Level Cleveland Center
09:25PM 39.7578 -79.7622 49° Northeast 473 544 33,000  Level Cleveland Center
09:26PM 39.8444 -79.6314 49° Northeast 473 544 33,000  Level Cleveland Center
09:27PM 39.9328 -79.5028 48° Northeast 468 539 33,000  Level Cleveland Center
09:28PM 40.0169 -79.3714 50° Northeast 468 539 33,000  Level Cleveland Center
09:29PM 40.1011 -79.2422 50° Northeast 462 532 33,000  Level Cleveland Center
09:30PM 40.1889 -79.1100 49° Northeast 462 532 33,000  Level Cleveland Center
09:31PM 40.2747 -78.9775 50° Northeast 462 532 33,000  Level Cleveland Center
09:32PM 40.3625 -78.8475 48° Northeast 462 532 33,000  Level Cleveland Center
09:33PM 40.4481 -78.7169 49° Northeast 462 532 33,000  Level Cleveland Center
09:35PM 40.5878 -78.5058 49° Northeast 469 540 33,000  Level New York Center
09:36PM 40.6711 -78.3756 50° Northeast 469 540 33,000  Level New York Center
09:37PM 40.7472 -78.2306 55° Northeast 474 545 33,000  Level New York Center
09:38PM 40.8242 -78.0633 59° Northeast 479 551 33,000  Level New York Center
09:39PM 40.9033 -77.9289 52° Northeast 474 545 33,000  Level New York Center
09:40PM 40.9900 -77.8061 47° Northeast 464 534 33,000  Level New York Center
09:41PM 41.0783 -77.6831 46° Northeast 459 528 33,000 -240 Level New York Center
09:42PM 41.1669 -77.5597 46° Northeast 459 528 32,600 -1,020 Descending New York Center
09:43PM 41.2533 -77.4331 48° Northeast 459 528 31,000 -1,680 Descending New York Center
09:44PM 41.3369 -77.3142 47° Northeast 453 521 29,200 -1,020 Descending New York Center
09:45PM 41.4247 -77.1928 46° Northeast 453 521 29,000 -120 Descending New York Center
09:46PM 41.5039 -77.0783 47° Northeast 453 521 29,000  Level New York Center
09:47PM 41.5894 -76.9561 47° Northeast 453 521 29,000 -60 Level New York Center
09:48PM 41.6747 -76.8389 46° Northeast 448 516 28,900 -1,080 Descending New York Center
09:49PM 41.7581 -76.7131 48° Northeast 448 516 26,900 -1,500 Descending New York Center
09:50PM 41.8431 -76.5925 47° Northeast 448 516 25,900 -1,020 Descending New York Center
09:52PM 42.0164 -76.3414 47° Northeast 443 510 24,000 -660 Descending Boston Center
09:53PM 42.0975 -76.2261 47° Northeast 437 503 24,000  Level Boston Center
09:54PM 42.1725 -76.0989 51° Northeast 432 497 24,000  Level Boston Center
09:55PM 42.2253 -75.9478 65° Northeast 427 491 24,000  Level Boston Center
09:56PM 42.2778 -75.7992 64° Northeast 427 491 24,000  Level Boston Center
09:57PM 42.3211 -75.6694 66° East 424 488 24,000 -720 Level Boston Center
09:58PM 42.3711 -75.5231 65° Northeast 424 488 22,600 -1,920 Descending Boston Center
09:59PM 42.4042 -75.3700 74° East 424 488 20,200 -2,280 Descending Boston Center
10:00PM 42.4372 -75.2225 73° East 419 482 18,100 -1,620 Descending Boston Center
10:01PM 42.4697 -75.0775 73° East 407 468 17,000 -1,200 Descending Boston Center
10:02PM 42.5000 -74.9408 73° East 393 452 15,700 -1,440 Descending Boston Center
10:03PM 42.5300 -74.8097 73° East 376 433 14,200 -1,680 Descending Boston Center
10:03PM 42.5417 -74.7508 75° East 368 423 13,500 -1,800 Descending Boston Center
10:04PM 42.5667 -74.6419 73° East 362 417 12,200 -1,260 Descending Boston Center
10:05PM 42.5747 -74.5378 84° East 365 420 11,400 -960 Descending Boston Center
10:06PM 42.5731 -74.4025 91° East 340 391 10,400 -1,260 Descending Boston Center
10:07PM 42.5689 -74.2783 93° East 289 333 8,700 -1,500 Descending Boston Center
10:08PM 42.5661 -74.1850 92° East 289 333 7,500 -1,500 Descending Boston Center
10:09PM 42.5675 -74.0922 89° East 278 320 6,000 -1,260 Descending Boston Center
10:10PM 42.5878 -73.9939 74° East 258 297 5,000 -1,320 Descending Boston Center
10:11PM 42.6033 -73.9208 74° East 218 251 3,400 -1,200 Descending Boston Center
10:12PM 42.6167 -73.8508 75° East 198 228 2,700 -720 Descending Boston Center